createdAt,value
2023-02-13T00:00:11.304Z,100.00
2023-02-13T00:02:37.965Z,100.00
2023-02-13T00:05:04.735Z,100.00
2023-02-13T00:07:31.415Z,100.00
2023-02-13T00:09:58.061Z,100.00
2023-02-13T00:12:24.751Z,100.00
2023-02-13T00:14:51.450Z,100.00
2023-02-13T00:17:18.082Z,100.00
2023-02-13T00:19:44.749Z,100.00
2023-02-13T00:22:11.830Z,100.00
2023-02-13T00:24:38.566Z,100.00
2023-02-13T00:27:05.232Z,100.00
2023-02-13T00:29:31.850Z,100.00
2023-02-13T00:31:58.580Z,100.00
2023-02-13T00:34:25.271Z,100.00
2023-02-13T00:36:51.890Z,100.00
2023-02-13T00:39:18.581Z,100.00
2023-02-13T00:41:45.339Z,100.00
2023-02-13T00:44:12.086Z,100.00
2023-02-13T00:46:38.856Z,100.00
2023-02-13T00:49:06.152Z,100.00
2023-02-13T00:51:32.893Z,100.00
2023-02-13T00:53:59.545Z,100.00
2023-02-13T00:56:26.156Z,100.00
2023-02-13T00:58:52.909Z,100.00
2023-02-13T01:01:19.578Z,100.00
2023-02-13T01:03:46.305Z,100.00
2023-02-13T01:06:12.966Z,100.00
2023-02-13T01:08:40.797Z,100.00
2023-02-13T01:11:07.997Z,100.00
2023-02-13T01:13:34.752Z,99.83
2023-02-13T01:16:01.593Z,100.00
2023-02-13T01:18:28.457Z,99.99
2023-02-13T01:21:04.139Z,100.00
2023-02-13T01:23:35.250Z,100.00
2023-02-13T01:26:07.819Z,100.00
2023-02-13T01:28:35.062Z,100.00
2023-02-13T01:31:02.328Z,100.00
2023-02-13T01:33:29.852Z,100.00
2023-02-13T01:35:56.602Z,100.00
2023-02-13T01:38:23.242Z,100.00
2023-02-13T01:40:54.363Z,100.00
2023-02-13T01:43:23.539Z,100.00
2023-02-13T01:45:55.800Z,100.00
2023-02-13T01:48:27.318Z,100.00
2023-02-13T01:51:04.775Z,100.00
2023-02-13T01:53:36.093Z,100.00
2023-02-13T01:56:08.333Z,100.00
2023-02-13T01:58:37.406Z,100.00
2023-02-13T02:01:06.610Z,100.00
2023-02-13T02:03:39.708Z,100.00
2023-02-13T02:06:11.084Z,100.00
2023-02-13T02:08:39.065Z,100.00
2023-02-13T02:11:15.425Z,100.00
2023-02-13T02:13:42.641Z,100.00
2023-02-13T02:16:09.740Z,100.00
2023-02-13T02:18:36.386Z,100.00
2023-02-13T02:21:38.738Z,100.00
2023-02-13T02:24:38.691Z,100.00
2023-02-13T02:27:43.934Z,100.00
2023-02-13T02:30:46.084Z,100.00
2023-02-13T02:33:23.102Z,100.00
2023-02-13T02:36:20.746Z,100.00
2023-02-13T02:39:06.634Z,100.00
2023-02-13T02:42:06.633Z,100.00
2023-02-13T02:45:03.330Z,100.00
2023-02-13T02:48:31.214Z,100.00
2023-02-13T02:51:53.145Z,100.00
2023-02-13T02:55:03.216Z,100.00
2023-02-13T02:57:51.804Z,100.00
2023-02-13T03:00:41.085Z,100.00
2023-02-13T03:03:38.908Z,100.00
2023-02-13T03:06:14.381Z,100.00
2023-02-13T03:09:13.560Z,100.00
2023-02-13T03:12:01.849Z,100.00
2023-02-13T03:14:28.695Z,100.00
2023-02-13T03:17:16.782Z,100.00
2023-02-13T03:20:34.251Z,100.00
2023-02-13T03:23:18.420Z,100.00
2023-02-13T03:26:13.603Z,100.00
2023-02-13T03:29:09.418Z,100.00
2023-02-13T03:32:00.936Z,100.00
2023-02-13T03:34:52.641Z,100.00
2023-02-13T03:37:46.894Z,100.00
2023-02-13T03:40:22.318Z,100.00
2023-02-13T03:43:04.808Z,100.00
2023-02-13T03:45:57.288Z,100.00
2023-02-13T03:48:54.607Z,100.00
2023-02-13T03:51:28.108Z,100.00
2023-02-13T03:54:01.947Z,100.00
2023-02-13T03:56:50.978Z,100.00
2023-02-13T03:59:29.234Z,100.00
2023-02-13T04:02:20.240Z,100.00
2023-02-13T04:04:54.462Z,100.00
2023-02-13T04:07:29.690Z,100.00
2023-02-13T04:10:03.471Z,100.00
2023-02-13T04:13:12.537Z,100.00
2023-02-13T04:15:45.488Z,100.00
2023-02-13T04:18:21.222Z,100.00
2023-02-13T04:20:48.345Z,100.00
2023-02-13T04:23:15.468Z,100.00
2023-02-13T04:25:46.084Z,100.00
2023-02-13T04:28:12.751Z,100.00
2023-02-13T04:30:39.548Z,100.00
2023-02-13T04:33:06.286Z,100.00
2023-02-13T04:35:32.912Z,100.00
2023-02-13T04:37:59.583Z,100.00
2023-02-13T04:40:26.239Z,100.00
2023-02-13T04:42:53.012Z,100.00
2023-02-13T04:45:19.632Z,100.00
2023-02-13T04:47:56.078Z,100.00
2023-02-13T04:50:23.535Z,100.00
2023-02-13T04:52:55.612Z,100.00
2023-02-13T04:55:23.882Z,100.00
2023-02-13T04:57:53.886Z,100.00
2023-02-13T05:00:22.372Z,100.00
2023-02-13T05:02:49.257Z,100.00
2023-02-13T05:05:16.122Z,100.00
2023-02-13T05:07:43.110Z,100.00
2023-02-13T05:10:11.745Z,100.00
2023-02-13T05:12:38.880Z,100.00
2023-02-13T05:15:06.520Z,100.00
2023-02-13T05:17:33.172Z,100.00
2023-02-13T05:19:59.999Z,100.00
2023-02-13T05:22:45.252Z,100.00
2023-02-13T05:25:11.905Z,100.00
2023-02-13T05:27:38.580Z,100.00
2023-02-13T05:30:05.999Z,100.00
2023-02-13T05:32:32.708Z,100.00
2023-02-13T05:34:59.324Z,100.00
2023-02-13T05:37:26.037Z,100.00
2023-02-13T05:39:52.615Z,100.00
2023-02-13T05:42:19.277Z,100.00
2023-02-13T05:44:45.905Z,100.00
2023-02-13T05:47:12.513Z,100.00
2023-02-13T05:49:39.127Z,100.00
2023-02-13T05:52:05.833Z,100.00
2023-02-13T05:54:32.472Z,100.00
2023-02-13T05:56:59.116Z,100.00
2023-02-13T05:59:25.742Z,100.00
2023-02-13T06:01:52.651Z,100.00
2023-02-13T06:04:19.338Z,100.00
2023-02-13T06:06:46.212Z,100.00
2023-02-13T06:09:12.955Z,100.00
2023-02-13T06:11:39.568Z,100.00
2023-02-13T06:14:06.228Z,100.00
2023-02-13T06:16:32.904Z,100.00
2023-02-13T06:18:59.650Z,100.00
2023-02-13T06:21:26.262Z,100.00
2023-02-13T06:23:52.872Z,100.00
2023-02-13T06:26:19.591Z,100.00
2023-02-13T06:28:46.242Z,100.00
2023-02-13T06:31:13.245Z,100.00
2023-02-13T06:33:39.953Z,100.00
2023-02-13T06:36:07.350Z,100.00
2023-02-13T06:38:33.943Z,100.00
2023-02-13T06:41:04.512Z,100.00
2023-02-13T06:43:31.199Z,100.00
2023-02-13T06:45:57.841Z,100.00
2023-02-13T06:48:24.707Z,100.00
2023-02-13T06:50:54.540Z,100.00
2023-02-13T06:53:24.784Z,100.00
2023-02-13T06:55:55.612Z,100.00
2023-02-13T06:58:24.164Z,100.00
2023-02-13T07:00:52.131Z,100.00
2023-02-13T07:03:19.020Z,100.00
2023-02-13T07:05:45.805Z,100.00
2023-02-13T07:08:13.496Z,100.00
2023-02-13T07:10:41.591Z,100.00
2023-02-13T07:13:09.428Z,100.00
2023-02-13T07:15:37.080Z,100.00
2023-02-13T07:18:04.661Z,100.00
2023-02-13T07:20:31.341Z,100.00
2023-02-13T07:23:02.475Z,100.00
2023-02-13T07:25:29.876Z,100.00
2023-02-13T07:28:04.510Z,100.00
2023-02-13T07:30:33.175Z,100.00
2023-02-13T07:33:04.215Z,100.00
2023-02-13T07:35:31.264Z,100.00
2023-02-13T07:37:58.140Z,100.00
2023-02-13T07:40:24.780Z,100.00
2023-02-13T07:42:51.597Z,100.00
2023-02-13T07:45:18.259Z,99.92
2023-02-13T07:47:44.889Z,100.00
2023-02-13T07:50:12.068Z,99.75
2023-02-13T07:52:38.883Z,99.04
2023-02-13T07:55:06.282Z,99.08
2023-02-13T07:57:33.716Z,98.48
2023-02-13T08:00:00.408Z,98.36
2023-02-13T08:02:27.091Z,97.02
2023-02-13T08:04:53.707Z,96.82
2023-02-13T08:07:20.468Z,96.96
2023-02-13T08:10:05.635Z,96.90
2023-02-13T08:12:35.149Z,96.63
2023-02-13T08:15:01.794Z,97.48
2023-02-13T08:17:28.450Z,98.33
2023-02-13T08:19:55.147Z,98.18
2023-02-13T08:22:21.777Z,99.10
2023-02-13T08:24:48.403Z,99.70
2023-02-13T08:27:15.379Z,100.00
2023-02-13T08:29:42.248Z,100.00
2023-02-13T08:32:09.453Z,99.76
2023-02-13T08:34:36.256Z,100.00
2023-02-13T08:37:03.483Z,100.00
2023-02-13T08:39:30.117Z,100.00
2023-02-13T08:41:56.774Z,99.68
2023-02-13T08:44:23.401Z,98.93
2023-02-13T08:46:50.033Z,98.12
2023-02-13T08:49:16.829Z,99.93
2023-02-13T08:51:43.451Z,99.46
2023-02-13T08:54:10.067Z,97.57
2023-02-13T08:56:36.708Z,97.75
2023-02-13T08:59:03.472Z,98.37
2023-02-13T09:01:30.204Z,99.06
2023-02-13T09:03:56.861Z,99.71
2023-02-13T09:06:26.175Z,97.93
2023-02-13T09:08:53.572Z,99.32
2023-02-13T09:11:23.228Z,99.70
2023-02-13T09:13:52.983Z,100.00
2023-02-13T09:16:19.841Z,99.45
2023-02-13T09:18:51.082Z,98.90
2023-02-13T09:21:19.960Z,97.18
2023-02-13T09:23:46.578Z,97.08
2023-02-13T09:26:15.218Z,97.80
2023-02-13T09:28:42.509Z,97.59
2023-02-13T09:31:12.140Z,97.91
2023-02-13T09:33:39.223Z,98.09
2023-02-13T09:36:07.553Z,97.00
2023-02-13T09:38:34.745Z,96.13
2023-02-13T09:41:05.911Z,96.46
2023-02-13T09:43:41.008Z,96.63
2023-02-13T09:46:16.101Z,98.16
2023-02-13T09:48:47.006Z,98.97
2023-02-13T09:51:17.560Z,99.33
2023-02-13T09:53:51.256Z,99.36
2023-02-13T09:56:24.430Z,99.43
2023-02-13T09:59:06.486Z,100.00
2023-02-13T10:01:47.864Z,99.70
2023-02-13T10:05:00.638Z,99.75
2023-02-13T10:07:51.632Z,99.97
2023-02-13T10:11:00.170Z,99.39
2023-02-13T10:14:01.998Z,98.15
2023-02-13T10:16:49.409Z,98.37
2023-02-13T10:19:42.807Z,97.77
2023-02-13T10:22:17.035Z,96.65
2023-02-13T10:25:04.912Z,96.88
2023-02-13T10:51:13.769Z,94.49
2023-02-13T10:57:26.569Z,96.85
2023-02-13T11:24:26.185Z,93.77
2023-02-13T11:26:59.505Z,94.09
2023-02-13T11:29:30.895Z,93.59
2023-02-13T11:32:28.454Z,93.70
2023-02-13T11:34:56.183Z,94.70
2023-02-13T11:37:28.547Z,94.26
2023-02-13T11:39:57.859Z,95.53
2023-02-13T11:42:31.386Z,96.56
2023-02-13T11:45:01.798Z,96.69
2023-02-13T11:47:39.251Z,95.46
2023-02-13T11:50:29.507Z,92.93
2023-02-13T11:53:06.288Z,94.32
2023-02-13T11:55:40.428Z,93.52
2023-02-13T11:58:25.172Z,94.03
2023-02-13T12:01:25.023Z,94.36
2023-02-13T12:04:18.365Z,95.20
2023-02-13T12:07:12.687Z,95.39
2023-02-13T12:09:41.022Z,94.59
2023-02-13T12:12:16.576Z,93.37
2023-02-13T12:14:45.323Z,92.98
2023-02-13T12:17:31.260Z,93.54
2023-02-13T12:19:59.464Z,93.64
2023-02-13T12:23:03.888Z,93.82
2023-02-13T12:25:53.916Z,92.77
2023-02-13T12:28:28.418Z,92.09
2023-02-13T12:31:38.569Z,93.19
2023-02-13T12:34:33.679Z,93.87
2023-02-13T12:37:13.643Z,94.52
2023-02-13T12:39:52.751Z,94.89
2023-02-13T12:42:41.160Z,94.17
2023-02-13T12:45:48.060Z,94.03
2023-02-13T12:48:33.426Z,93.32
2023-02-13T12:51:26.939Z,93.60
2023-02-13T12:54:30.844Z,93.72
2023-02-13T12:57:36.153Z,93.37
2023-02-13T13:00:40.195Z,92.41
2023-02-13T13:03:35.035Z,91.36
2023-02-13T13:06:19.755Z,92.32
2023-02-13T13:09:11.699Z,92.00
2023-02-13T13:12:30.615Z,90.65
2023-02-13T13:15:34.798Z,91.24
2023-02-13T13:18:36.092Z,90.23
2023-02-13T13:21:36.720Z,89.47
2023-02-13T13:24:35.836Z,89.62
2023-02-13T13:27:03.891Z,90.83
2023-02-13T13:29:42.868Z,90.80
2023-02-13T13:32:16.784Z,90.21
2023-02-13T13:34:43.737Z,90.77
2023-02-13T13:37:37.126Z,90.70
2023-02-13T13:40:24.319Z,89.98
2023-02-13T13:43:03.156Z,89.63
2023-02-13T13:46:08.007Z,90.14
2023-02-13T13:49:06.994Z,90.45
2023-02-13T13:51:33.888Z,89.54
2023-02-13T13:54:25.350Z,89.53
2023-02-13T13:57:11.903Z,89.29
2023-02-13T14:00:21.829Z,89.17
2023-02-13T14:03:25.140Z,89.34
2023-02-13T14:06:08.030Z,89.08
2023-02-13T14:08:40.727Z,89.43
2023-02-13T14:11:27.046Z,89.29
2023-02-13T14:13:53.679Z,88.67
2023-02-13T14:16:47.564Z,88.14
2023-02-13T14:19:45.283Z,89.02
2023-02-13T14:22:34.354Z,89.28
2023-02-13T14:25:06.495Z,89.46
2023-02-13T14:27:38.700Z,89.62
2023-02-13T14:30:22.212Z,89.82
2023-02-13T14:32:49.043Z,89.41
2023-02-13T14:35:33.636Z,89.37
2023-02-13T14:38:02.786Z,89.31
2023-02-13T14:40:43.979Z,89.25
2023-02-13T14:43:42.252Z,89.09
2023-02-13T14:46:41.292Z,89.57
2023-02-13T14:49:15.430Z,89.73
2023-02-13T14:51:49.463Z,89.30
2023-02-13T14:54:26.384Z,89.76
2023-02-13T14:56:58.329Z,92.37
2023-02-13T14:59:29.207Z,91.39
2023-02-13T15:02:01.127Z,91.19
2023-02-13T15:04:38.908Z,91.02
2023-02-13T15:07:13.265Z,91.00
2023-02-13T15:09:41.511Z,90.58
2023-02-13T15:12:34.380Z,90.50
2023-02-13T15:15:02.172Z,91.69
2023-02-13T15:17:32.789Z,91.25
2023-02-13T15:20:24.352Z,91.38
2023-02-13T15:22:51.679Z,90.77
2023-02-13T15:25:39.173Z,91.11
2023-02-13T15:28:08.521Z,91.87
2023-02-13T15:30:37.061Z,92.29
2023-02-13T15:33:17.090Z,91.79
2023-02-13T15:35:44.818Z,91.74
2023-02-13T15:38:24.907Z,91.59
2023-02-13T15:40:55.451Z,91.86
2023-02-13T15:43:32.223Z,92.27
2023-02-13T15:46:02.670Z,93.06
2023-02-13T15:48:31.974Z,92.66
2023-02-13T15:50:59.248Z,92.56
2023-02-13T15:53:26.066Z,92.17
2023-02-13T15:56:01.799Z,92.49
2023-02-13T15:58:34.205Z,92.67
2023-02-13T16:01:05.587Z,91.68
2023-02-13T16:03:34.764Z,92.44
2023-02-13T16:06:02.504Z,92.04
2023-02-13T16:08:36.097Z,92.16
2023-02-13T16:11:26.717Z,92.10
2023-02-13T16:14:26.746Z,92.12
2023-02-13T16:17:03.159Z,92.98
2023-02-13T16:19:41.966Z,93.17
2023-02-13T16:22:54.652Z,93.60
2023-02-13T16:25:39.452Z,93.67
2023-02-13T16:28:21.341Z,93.80
2023-02-13T16:30:59.991Z,93.57
2023-02-13T16:33:31.905Z,93.85
2023-02-13T16:36:01.065Z,93.37
2023-02-13T16:38:36.479Z,94.39
2023-02-13T16:41:05.990Z,94.70
2023-02-13T16:44:02.917Z,95.78
2023-02-13T16:46:33.028Z,96.10
2023-02-13T16:49:21.888Z,96.50
2023-02-13T16:51:52.440Z,97.04
2023-02-13T16:54:48.595Z,97.03
2023-02-13T16:57:23.050Z,97.67
2023-02-13T17:00:22.272Z,98.27
2023-02-13T17:02:50.848Z,98.01
2023-02-13T17:05:24.130Z,99.11
2023-02-13T17:07:54.501Z,98.81
2023-02-13T17:10:40.005Z,99.47
2023-02-13T17:13:11.484Z,99.20
2023-02-13T17:15:42.054Z,98.82
2023-02-13T17:18:08.692Z,98.80
2023-02-13T17:20:37.337Z,99.92
2023-02-13T17:23:07.029Z,99.56
2023-02-13T17:25:37.977Z,99.69
2023-02-13T17:28:16.644Z,98.83
2023-02-13T17:30:44.368Z,99.32
2023-02-13T17:33:16.613Z,99.40
2023-02-13T17:35:43.306Z,100.00
2023-02-13T17:38:10.440Z,100.00
2023-02-13T17:40:37.675Z,100.00
2023-02-13T17:43:04.886Z,100.00
2023-02-13T17:45:34.596Z,100.00
2023-02-13T17:48:01.265Z,100.00
2023-02-13T17:50:29.818Z,100.00
2023-02-13T17:52:57.720Z,100.00
2023-02-13T17:55:26.816Z,100.00
2023-02-13T17:57:56.573Z,100.00
2023-02-13T18:00:25.696Z,100.00
2023-02-13T18:02:52.565Z,100.00
2023-02-13T18:05:19.961Z,100.00
2023-02-13T18:07:47.752Z,100.00
2023-02-13T18:10:17.523Z,100.00
2023-02-13T18:12:45.401Z,100.00
2023-02-13T18:15:13.350Z,100.00
2023-02-13T18:17:40.086Z,100.00
2023-02-13T18:20:09.720Z,100.00
2023-02-13T18:22:36.449Z,100.00
2023-02-13T18:25:04.356Z,100.00
2023-02-13T18:27:30.987Z,100.00
2023-02-13T18:29:57.703Z,100.00
2023-02-13T18:32:24.918Z,100.00
2023-02-13T18:34:51.662Z,100.00
2023-02-13T18:37:18.695Z,100.00
2023-02-13T18:39:45.360Z,100.00
2023-02-13T18:42:13.363Z,100.00
2023-02-13T18:44:40.805Z,100.00
2023-02-13T18:47:08.217Z,100.00
2023-02-13T18:49:36.206Z,100.00
2023-02-13T18:52:03.127Z,100.00
2023-02-13T18:54:29.971Z,100.00
2023-02-13T18:56:56.668Z,100.00
2023-02-13T18:59:23.581Z,100.00
2023-02-13T19:01:51.149Z,100.00
2023-02-13T19:04:17.827Z,100.00
2023-02-13T19:06:44.997Z,100.00
2023-02-13T19:09:11.710Z,100.00
2023-02-13T19:11:39.514Z,100.00
2023-02-13T19:14:06.920Z,100.00
2023-02-13T19:16:35.463Z,100.00
2023-02-13T19:19:05.181Z,100.00
2023-02-13T19:21:33.963Z,100.00
2023-02-13T19:24:02.890Z,100.00
2023-02-13T19:26:29.593Z,100.00
2023-02-13T19:28:58.004Z,100.00
2023-02-13T19:31:27.429Z,100.00
2023-02-13T19:33:54.667Z,100.00
2023-02-13T19:36:25.649Z,100.00
2023-02-13T19:39:03.103Z,100.00
2023-02-13T19:41:30.400Z,100.00
2023-02-13T19:43:57.296Z,100.00
2023-02-13T19:46:29.058Z,100.00
2023-02-13T19:48:56.030Z,100.00
2023-02-13T19:51:25.660Z,100.00
2023-02-13T19:54:00.832Z,100.00
2023-02-13T19:56:28.448Z,100.00
2023-02-13T19:58:55.245Z,100.00
2023-02-13T20:01:23.695Z,100.00
2023-02-13T20:03:51.091Z,100.00
2023-02-13T20:06:21.413Z,100.00
2023-02-13T20:08:51.596Z,100.00
2023-02-13T20:11:20.854Z,100.00
2023-02-13T20:13:48.312Z,100.00
2023-02-13T20:16:17.160Z,100.00
2023-02-13T20:18:44.036Z,100.00
2023-02-13T20:21:12.752Z,100.00
2023-02-13T20:23:40.062Z,100.00
2023-02-13T20:26:14.721Z,100.00
2023-02-13T20:28:42.887Z,100.00
2023-02-13T20:31:17.596Z,100.00
2023-02-13T20:33:45.113Z,100.00
2023-02-13T20:36:16.384Z,100.00
2023-02-13T20:38:43.545Z,100.00
2023-02-13T20:41:17.654Z,100.00
2023-02-13T20:43:44.990Z,100.00
2023-02-13T20:46:12.700Z,100.00
2023-02-13T20:48:40.679Z,100.00
2023-02-13T20:51:11.492Z,100.00
2023-02-13T20:53:38.903Z,100.00
2023-02-13T20:56:13.345Z,100.00
2023-02-13T20:58:42.054Z,100.00
2023-02-13T21:01:22.999Z,100.00
2023-02-13T21:03:53.743Z,100.00
2023-02-13T21:06:25.771Z,100.00
2023-02-13T21:08:52.496Z,100.00
2023-02-13T21:11:20.277Z,100.00
2023-02-13T21:13:47.169Z,100.00
2023-02-13T21:16:25.471Z,100.00
2023-02-13T21:18:54.886Z,100.00
2023-02-13T21:21:24.171Z,100.00
2023-02-13T21:23:54.618Z,100.00
2023-02-13T21:26:21.707Z,100.00
2023-02-13T21:28:49.367Z,100.00
2023-02-13T21:31:27.593Z,100.00
2023-02-13T21:33:56.711Z,100.00
2023-02-13T21:36:23.364Z,100.00
2023-02-13T21:38:50.054Z,100.00
2023-02-13T21:41:18.367Z,100.00
2023-02-13T21:43:48.419Z,100.00
2023-02-13T21:46:21.008Z,100.00
2023-02-13T21:48:51.749Z,100.00
2023-02-13T21:51:20.147Z,100.00
2023-02-13T21:53:48.720Z,100.00
2023-02-13T21:56:20.411Z,100.00
2023-02-13T21:58:47.777Z,100.00
2023-02-13T22:01:26.083Z,100.00
2023-02-13T22:04:00.340Z,100.00
2023-02-13T22:06:28.379Z,100.00
2023-02-13T22:09:08.989Z,100.00
2023-02-13T22:11:36.227Z,100.00
2023-02-13T22:14:05.608Z,100.00
2023-02-13T22:16:34.886Z,100.00
2023-02-13T22:19:02.307Z,100.00
2023-02-13T22:21:33.588Z,100.00
2023-02-13T22:24:00.376Z,100.00
2023-02-13T22:26:35.330Z,100.00
2023-02-13T22:29:10.766Z,100.00
2023-02-13T22:31:38.008Z,100.00
2023-02-13T22:34:05.954Z,100.00
2023-02-13T22:36:35.075Z,100.00
2023-02-13T22:39:01.857Z,100.00
2023-02-13T22:41:28.596Z,100.00
2023-02-13T22:43:55.894Z,100.00
2023-02-13T22:46:25.414Z,100.00
2023-02-13T22:48:52.827Z,100.00
2023-02-13T22:51:25.686Z,100.00
2023-02-13T22:53:54.418Z,100.00
2023-02-13T22:56:21.667Z,100.00
2023-02-13T22:58:48.673Z,100.00
2023-02-13T23:01:18.174Z,100.00
2023-02-13T23:03:45.090Z,100.00
2023-02-13T23:06:13.858Z,100.00
2023-02-13T23:08:41.276Z,100.00
2023-02-13T23:11:30.152Z,100.00
2023-02-13T23:13:56.939Z,100.00
2023-02-13T23:16:23.860Z,100.00
2023-02-13T23:18:57.706Z,100.00
2023-02-13T23:21:25.106Z,100.00
2023-02-13T23:23:51.876Z,100.00
2023-02-13T23:26:18.806Z,100.00
2023-02-13T23:28:45.532Z,100.00
2023-02-13T23:31:12.286Z,100.00
2023-02-13T23:33:38.990Z,100.00
2023-02-13T23:36:06.414Z,100.00
2023-02-13T23:38:33.081Z,100.00
2023-02-13T23:41:09.032Z,100.00
2023-02-13T23:43:35.790Z,100.00
2023-02-13T23:46:06.805Z,100.00
2023-02-13T23:48:34.193Z,100.00
2023-02-13T23:51:01.566Z,100.00
2023-02-13T23:53:28.575Z,100.00
2023-02-13T23:55:55.326Z,100.00
2023-02-13T23:58:22.058Z,100.00
